Tefft, Indiana
Current Conditions -  °F | °C
As of 9:56 PM on Tuesday 25 Nov 2014 (Local Time) from KVPZ Reporting Station
Overcast Overcast  
Wind Chill: 16°   Ceiling: 1300
Heat Index: 23°   Visibility: 10mi
Dew Point: 18°   Wind: 6mph
Humidity: 81%   Direction: 170°S
Pressure: 30.21"   Gusts: NA
Location:  41.2°N, 86.97°W
Report Text: KVPZ 260356Z AUTO 17005KT 10SM OVC013 M05/M08 A3021 RMK AO2 SLP240 T10501078 TSNO
Loading
Personal Weather Stations






























Interactive Weather Map New forecast layout! Learn more

10-Day Weather Forecast

Advertisements
Track Severe Weather on mobile